Time;durP1;ratioP1;P1;durP2;ratioP2;P2;SDS_P1;SDS_P2;PMS_P1;PMS_P2;Temp;Humidity;BMP_temperature;BMP_pressure;BME280_temperature;BME280_humidity;BME280_pressure;Samples;Min_cycle;Max_cycle;Signal;HPM_P1;HPM_P2
2022/03/04 00:02:07;;;;;;;15.43;11.98;;;;;;;3.88;61.71;101824.16;5265391;28;20017;-70
2022/03/04 00:04:38;;;;;;;17.52;11.93;;;;;;;3.86;61.60;101832.00;5261978;28;20473;-70
2022/03/04 00:07:11;;;;;;;15.75;12.00;;;;;;;3.78;61.39;101839.22;5262140;28;20033;-70
2022/03/04 00:09:42;;;;;;;16.90;11.35;;;;;;;3.73;60.87;101840.31;5266413;28;20028;-70
2022/03/04 00:12:13;;;;;;;16.25;11.95;;;;;;;3.74;60.64;101839.41;5265843;28;20029;-70
2022/03/04 00:14:45;;;;;;;16.48;11.75;;;;;;;3.71;62.07;101842.97;5258111;28;20505;-70
2022/03/04 00:17:16;;;;;;;14.90;11.38;;;;;;;3.63;61.81;101845.84;5263281;28;20021;-70
2022/03/04 00:19:47;;;;;;;16.58;11.10;;;;;;;3.63;61.39;101835.50;5260013;28;20045;-70
2022/03/04 00:22:19;;;;;;;18.02;12.10;;;;;;;3.64;61.20;101847.56;5261633;28;20354;-70
2022/03/04 00:24:50;;;;;;;16.20;11.90;;;;;;;3.52;61.41;101853.22;5256824;28;20404;-71
2022/03/04 00:27:21;;;;;;;17.92;11.73;;;;;;;3.55;61.74;101857.44;5264983;28;20032;-70
2022/03/04 00:29:53;;;;;;;19.98;12.30;;;;;;;3.45;61.76;101850.91;5262472;28;20024;-70
2022/03/04 00:32:24;;;;;;;18.00;11.95;;;;;;;3.44;62.26;101844.91;5268299;28;20036;-69
2022/03/04 00:34:55;;;;;;;18.55;12.40;;;;;;;3.48;62.14;101851.63;5260512;28;20074;-70
2022/03/04 00:37:27;;;;;;;15.65;11.55;;;;;;;3.38;63.04;101850.34;5262534;28;20107;-70
2022/03/04 00:39:58;;;;;;;15.80;11.68;;;;;;;3.42;63.48;101863.09;5263294;28;20036;-70
2022/03/04 00:42:29;;;;;;;16.20;11.80;;;;;;;3.32;63.40;101855.75;5266929;28;20025;-69
2022/03/04 00:45:01;;;;;;;19.38;12.60;;;;;;;3.33;63.91;101860.00;5264452;28;20037;-71
2022/03/04 00:47:32;;;;;;;17.38;11.95;;;;;;;3.28;63.89;101864.53;5261468;28;20025;-70
2022/03/04 00:50:04;;;;;;;16.27;12.13;;;;;;;3.29;64.47;101867.03;5266090;28;20215;-69
2022/03/04 00:52:36;;;;;;;18.40;13.27;;;;;;;3.15;64.11;101857.22;5264136;28;20452;-69
2022/03/04 00:55:09;;;;;;;19.65;12.52;;;;;;;3.09;64.09;101864.38;5264114;28;20021;-70
2022/03/04 00:57:40;;;;;;;16.77;13.00;;;;;;;3.01;64.38;101859.47;5265205;28;20061;-69
2022/03/04 01:00:12;;;;;;;18.98;12.77;;;;;;;3.04;65.73;101855.94;5264403;28;20319;-69
2022/03/04 01:02:43;;;;;;;19.05;12.52;;;;;;;2.94;65.00;101863.19;5262473;28;20520;-70
2022/03/04 01:05:14;;;;;;;19.10;13.23;;;;;;;2.93;64.80;101857.19;5268731;28;20031;-70
2022/03/04 01:07:46;;;;;;;19.83;13.63;;;;;;;2.88;64.78;101871.19;5265944;28;20020;-70
2022/03/04 01:10:17;;;;;;;18.55;13.02;;;;;;;2.86;65.05;101868.66;5265794;28;20025;-70
2022/03/04 01:12:48;;;;;;;16.80;12.90;;;;;;;2.85;64.98;101864.38;5265524;28;20025;-68
2022/03/04 01:15:20;;;;;;;18.88;12.82;;;;;;;2.73;65.68;101867.41;5260934;28;20048;-69
2022/03/04 01:17:51;;;;;;;18.40;13.27;;;;;;;2.78;66.21;101869.84;5265186;28;20030;-70
2022/03/04 01:20:23;;;;;;;18.02;12.95;;;;;;;2.72;66.49;101859.69;5266673;28;20366;-70
2022/03/04 01:22:54;;;;;;;17.27;12.98;;;;;;;2.74;66.55;101874.28;5261732;28;20024;-69
2022/03/04 01:25:26;;;;;;;19.98;13.98;;;;;;;2.77;67.75;101870.75;5265712;28;20027;-67
2022/03/04 01:27:58;;;;;;;17.98;13.65;;;;;;;2.72;68.16;101862.28;5259429;28;20024;-69
2022/03/04 01:30:30;;;;;;;22.35;14.25;;;;;;;2.60;66.92;101860.97;5262190;28;20035;-69
2022/03/04 01:33:01;;;;;;;17.42;13.10;;;;;;;2.56;67.27;101864.56;5259377;28;20505;-68
2022/03/04 01:35:32;;;;;;;21.13;13.68;;;;;;;2.49;67.08;101865.66;5267244;28;20040;-70
2022/03/04 01:38:04;;;;;;;18.38;12.73;;;;;;;2.47;66.55;101862.31;5261991;28;20059;-69
2022/03/04 01:40:35;;;;;;;18.50;13.10;;;;;;;2.40;67.85;101864.25;5268692;28;20072;-69
2022/03/04 01:43:07;;;;;;;17.42;12.57;;;;;;;2.39;67.91;101850.47;5265640;28;20378;-69
2022/03/04 01:45:38;;;;;;;19.75;13.63;;;;;;;2.38;67.51;101840.19;5265866;28;20036;-70
2022/03/04 01:48:09;;;;;;;17.45;13.50;;;;;;;2.26;67.56;101849.19;5263190;28;20016;-69
2022/03/04 01:50:41;;;;;;;19.25;13.50;;;;;;;2.26;68.17;101853.53;5262996;28;20070;-69
2022/03/04 01:53:12;;;;;;;20.38;13.68;;;;;;;2.23;68.39;101849.31;5263818;28;20025;-68
2022/03/04 01:55:44;;;;;;;18.80;13.07;;;;;;;2.16;69.40;101848.69;5265442;28;20363;-70
2022/03/04 01:58:15;;;;;;;19.65;13.90;;;;;;;2.13;69.59;101850.53;5257674;28;20020;-69
2022/03/04 02:00:46;;;;;;;19.73;13.48;;;;;;;2.09;68.43;101849.78;5267484;28;20020;-69
2022/03/04 02:03:18;;;;;;;20.02;14.02;;;;;;;2.06;68.42;101854.22;5264901;28;20044;-69
2022/03/04 02:05:49;;;;;;;18.63;13.18;;;;;;;2.02;70.04;101857.78;5264262;28;20039;-70
2022/03/04 02:08:20;;;;;;;17.98;12.73;;;;;;;1.94;69.95;101858.88;5264122;28;20841;-69
2022/03/04 02:10:51;;;;;;;21.30;13.80;;;;;;;1.87;69.82;101859.13;5264571;28;20028;-70
2022/03/04 02:13:23;;;;;;;20.55;14.32;;;;;;;1.85;70.94;101864.31;5266782;28;20053;-68
2022/03/04 02:15:54;;;;;;;18.92;13.77;;;;;;;1.81;70.19;101859.31;5264613;28;20155;-70
2022/03/04 02:18:25;;;;;;;22.42;14.35;;;;;;;1.79;70.12;101861.13;5264021;28;20035;-70
2022/03/04 02:21:01;;;;;;;19.95;13.45;;;;;;;1.91;70.18;101864.16;5264362;28;20056;-69
2022/03/04 02:23:32;;;;;;;20.55;14.98;;;;;;;1.77;70.90;101862.91;5259700;28;20025;-69
2022/03/04 02:26:04;;;;;;;21.10;15.52;;;;;;;1.81;71.56;101862.75;5262906;28;20044;-68
2022/03/04 02:28:35;;;;;;;19.30;14.63;;;;;;;1.76;71.70;101849.13;5264669;28;20059;-69
2022/03/04 02:31:07;;;;;;;22.48;15.70;;;;;;;1.76;71.94;101846.56;5263091;28;20027;-69
2022/03/04 02:33:38;;;;;;;22.63;14.98;;;;;;;1.72;71.71;101849.28;5266449;28;20135;-69
2022/03/04 02:36:10;;;;;;;21.13;15.13;;;;;;;1.67;71.57;101847.69;5258831;28;20098;-69
2022/03/04 02:38:41;;;;;;;20.42;14.43;;;;;;;1.58;71.40;101850.56;5259104;28;20028;-69
2022/03/04 02:41:13;;;;;;;21.27;15.30;;;;;;;1.54;70.89;101838.63;5262832;28;20025;-69
2022/03/04 02:43:44;;;;;;;22.83;14.40;;;;;;;1.53;71.67;101841.28;5261094;28;20126;-69
2022/03/04 02:46:16;;;;;;;20.75;14.25;;;;;;;1.57;71.75;101841.13;5262126;28;20028;-69
2022/03/04 02:48:47;;;;;;;22.50;15.05;;;;;;;1.59;72.21;101841.06;5261144;28;20025;-69
2022/03/04 02:51:18;;;;;;;21.83;15.90;;;;;;;1.46;72.28;101838.03;5263035;28;20016;-69
2022/03/04 02:53:51;;;;;;;23.20;15.52;;;;;;;1.45;72.77;101838.94;5265824;28;20031;-67
2022/03/04 02:56:22;;;;;;;23.77;16.27;;;;;;;1.40;72.22;101843.38;5261948;28;20032;-70
2022/03/04 02:58:53;;;;;;;21.80;14.65;;;;;;;1.47;73.10;101837.13;5261730;28;20059;-69
2022/03/04 03:01:25;;;;;;;24.05;15.02;;;;;;;1.40;73.18;101835.63;5256865;28;20604;-68
2022/03/04 03:03:57;;;;;;;24.40;15.88;;;;;;;1.33;72.90;101835.00;5259248;28;20017;-69
2022/03/04 03:06:28;;;;;;;21.83;15.82;;;;;;;1.41;73.18;101847.66;5257187;28;20083;-69
2022/03/04 03:08:59;;;;;;;19.40;14.98;;;;;;;1.33;73.40;101844.47;5263962;28;20028;-69
2022/03/04 03:11:30;;;;;;;23.42;16.13;;;;;;;1.39;73.65;101849.44;5258426;28;20052;-70
2022/03/04 03:14:02;;;;;;;22.23;15.95;;;;;;;1.32;73.65;101841.03;5259893;28;20024;-68
2022/03/04 03:16:33;;;;;;;20.95;14.93;;;;;;;1.36;74.97;101834.88;5259551;28;20027;-69
2022/03/04 03:19:08;;;;;;;20.80;15.02;;;;;;;1.25;74.60;101831.78;5268141;28;20143;-69
2022/03/04 03:21:39;;;;;;;21.38;14.70;;;;;;;1.32;74.00;101842.75;5264165;28;20395;-69
2022/03/04 03:24:10;;;;;;;20.80;15.32;;;;;;;1.28;74.71;101836.84;5266600;28;20028;-69
2022/03/04 03:26:41;;;;;;;23.63;16.17;;;;;;;1.27;74.57;101837.75;5265094;28;20032;-68
2022/03/04 03:29:13;;;;;;;20.30;14.73;;;;;;;1.21;74.12;101840.50;5265517;28;20059;-69
2022/03/04 03:31:44;;;;;;;23.63;16.42;;;;;;;1.15;73.93;101836.38;5267749;28;20423;-69
2022/03/04 03:34:15;;;;;;;21.65;15.25;;;;;;;1.20;74.71;101841.41;5262338;28;20519;-69
2022/03/04 03:36:47;;;;;;;21.98;15.20;;;;;;;1.23;76.38;101836.16;5268395;28;20017;-69
2022/03/04 03:39:18;;;;;;;21.48;15.85;;;;;;;1.15;74.74;101840.69;5262303;28;20021;-68
2022/03/04 03:41:49;;;;;;;22.25;15.65;;;;;;;1.21;75.49;101853.41;5263297;28;20051;-69
2022/03/04 03:44:21;;;;;;;21.73;15.40;;;;;;;1.26;75.99;101854.13;5275833;28;20032;-69
2022/03/04 03:46:52;;;;;;;24.08;16.13;;;;;;;1.15;75.41;101853.59;5265183;28;20029;-69
2022/03/04 03:49:24;;;;;;;24.95;15.60;;;;;;;1.19;76.49;101842.28;5262177;28;20064;-69
2022/03/04 03:51:55;;;;;;;23.38;15.30;;;;;;;1.21;76.86;101843.06;5261731;28;20021;-69
2022/03/04 03:54:26;;;;;;;21.20;14.63;;;;;;;1.19;77.35;101840.56;5261790;28;20033;-69
2022/03/04 03:56:58;;;;;;;21.83;15.40;;;;;;;1.11;75.24;101842.53;5265268;28;20024;-69
2022/03/04 03:59:29;;;;;;;18.98;14.95;;;;;;;1.10;75.69;101845.13;5258667;28;20041;-68
2022/03/04 04:02:02;;;;;;;23.42;16.15;;;;;;;1.08;75.77;101844.34;5266991;28;20044;-68
2022/03/04 04:04:36;;;;;;;21.95;15.82;;;;;;;1.12;76.99;101848.53;5262185;28;20057;-67
2022/03/04 04:07:09;;;;;;;25.52;16.60;;;;;;;1.09;76.74;101851.19;5263640;28;20020;-69
2022/03/04 04:09:41;;;;;;;26.95;16.40;;;;;;;1.08;77.51;101852.09;5263673;28;20074;-69
2022/03/04 04:12:13;;;;;;;24.77;16.88;;;;;;;1.04;75.81;101859.06;5260740;28;20474;-68
2022/03/04 04:14:44;;;;;;;21.13;15.40;;;;;;;1.05;76.64;101857.31;5257906;28;20389;-69
2022/03/04 04:17:15;;;;;;;20.95;15.40;;;;;;;1.00;75.43;101856.63;5263864;28;20017;-69
2022/03/04 04:19:47;;;;;;;25.25;16.80;;;;;;;1.02;75.89;101865.16;5267666;28;20032;-69
2022/03/04 04:22:19;;;;;;;23.50;16.25;;;;;;;0.98;76.26;101864.38;5267259;28;20012;-69
2022/03/04 04:24:50;;;;;;;23.73;16.38;;;;;;;1.01;75.77;101860.88;5258603;28;20020;-69
2022/03/04 04:27:21;;;;;;;22.88;16.42;;;;;;;1.02;76.02;101860.00;5263451;28;20052;-69
2022/03/04 04:29:52;;;;;;;22.05;15.88;;;;;;;0.99;76.08;101863.53;5266055;28;20057;-69
2022/03/04 04:32:24;;;;;;;25.73;17.00;;;;;;;0.98;76.29;101861.81;5265945;28;20029;-69
2022/03/04 04:34:55;;;;;;;25.63;16.42;;;;;;;0.96;75.87;101859.28;5266339;28;20038;-69
2022/03/04 04:37:26;;;;;;;24.92;17.15;;;;;;;1.00;76.28;101869.53;5265252;28;20481;-68
2022/03/04 04:39:58;;;;;;;24.05;16.67;;;;;;;1.03;78.33;101872.03;5265585;28;20032;-69
2022/03/04 04:42:29;;;;;;;25.45;16.77;;;;;;;0.98;75.87;101869.56;5264155;28;20436;-69
2022/03/04 04:45:01;;;;;;;21.25;15.90;;;;;;;0.99;75.65;101878.16;5263722;28;20478;-68
2022/03/04 04:47:33;;;;;;;23.23;16.05;;;;;;;0.98;76.29;101872.13;5263970;28;20033;-69
2022/03/04 04:50:05;;;;;;;24.63;15.95;;;;;;;0.93;76.12;101877.44;5271252;28;20487;-68
2022/03/04 04:52:36;;;;;;;22.90;15.57;;;;;;;0.94;75.96;101880.84;5265373;28;20066;-69
2022/03/04 04:55:08;;;;;;;21.50;15.98;;;;;;;0.95;76.04;101879.97;5267235;28;20424;-69
2022/03/04 04:57:39;;;;;;;26.17;16.30;;;;;;;0.89;76.39;101872.41;5263567;28;20048;-69
2022/03/04 05:00:11;;;;;;;20.90;15.52;;;;;;;0.96;75.79;101879.09;5267635;28;20031;-69
2022/03/04 05:02:42;;;;;;;24.20;16.90;;;;;;;0.88;76.20;101874.13;5263890;28;20453;-69
2022/03/04 05:05:13;;;;;;;25.05;16.50;;;;;;;0.88;76.31;101875.88;5266827;28;20512;-69
2022/03/04 05:07:45;;;;;;;23.52;16.73;;;;;;;0.87;76.44;101872.47;5266170;28;20536;-69
2022/03/04 05:10:16;;;;;;;24.27;15.63;;;;;;;0.87;76.13;101871.59;5258294;28;20610;-69
2022/03/04 05:12:48;;;;;;;22.73;16.88;;;;;;;0.82;76.82;101874.31;5259382;28;20363;-69
2022/03/04 05:15:19;;;;;;;23.60;16.60;;;;;;;0.80;76.68;101867.50;5263576;28;20120;-68
2022/03/04 05:17:51;;;;;;;24.60;16.90;;;;;;;0.83;77.06;101872.56;5261360;28;20062;-69
2022/03/04 05:20:23;;;;;;;23.50;16.85;;;;;;;0.78;76.62;101869.28;5264402;28;20049;-69
2022/03/04 05:22:55;;;;;;;25.92;15.73;;;;;;;0.82;77.40;101873.47;5265909;28;20021;-69
2022/03/04 05:25:26;;;;;;;23.42;15.30;;;;;;;0.81;76.58;101871.78;5267670;28;20056;-69
2022/03/04 05:27:57;;;;;;;25.33;15.77;;;;;;;0.78;77.32;101867.53;5266584;28;20508;-68
2022/03/04 05:30:29;;;;;;;25.45;16.58;;;;;;;0.77;76.83;101867.59;5267330;28;20056;-68
2022/03/04 05:33:00;;;;;;;23.65;16.13;;;;;;;0.76;77.96;101871.91;5261816;28;20500;-69
2022/03/04 05:35:31;;;;;;;28.52;17.60;;;;;;;0.72;76.95;101876.31;5267249;28;20043;-69
2022/03/04 05:38:03;;;;;;;26.25;17.35;;;;;;;0.75;77.07;101875.34;5266534;28;20033;-68
2022/03/04 05:40:34;;;;;;;23.90;16.42;;;;;;;0.72;77.05;101872.88;5261425;28;20029;-69
2022/03/04 05:43:05;;;;;;;23.95;17.08;;;;;;;0.68;77.02;101886.72;5262353;28;20032;-69
2022/03/04 05:45:36;;;;;;;27.50;18.10;;;;;;;0.65;77.32;101886.81;5265151;28;20021;-69
2022/03/04 05:48:08;;;;;;;23.17;16.58;;;;;;;0.67;77.78;101895.34;5268611;28;20095;-69
2022/03/04 05:50:39;;;;;;;31.25;17.02;;;;;;;0.62;77.05;101898.06;5262917;28;20017;-69
2022/03/04 05:53:11;;;;;;;23.20;15.88;;;;;;;0.67;76.22;101893.63;5264754;28;20017;-68
2022/03/04 05:55:42;;;;;;;26.30;15.70;;;;;;;0.66;76.80;101893.66;5264150;28;20116;-69
2022/03/04 05:58:14;;;;;;;26.17;16.77;;;;;;;0.65;77.40;101900.56;5263300;28;20102;-69
2022/03/04 06:00:45;;;;;;;22.90;16.27;;;;;;;0.63;76.65;101910.06;5265302;28;20024;-69
2022/03/04 06:03:16;;;;;;;26.25;16.63;;;;;;;0.59;76.92;101905.88;5257969;28;20111;-69
2022/03/04 06:05:48;;;;;;;22.98;15.88;;;;;;;0.61;76.77;101911.00;5263392;28;20024;-69
2022/03/04 06:08:19;;;;;;;25.73;16.52;;;;;;;0.56;77.02;101916.25;5267528;28;20380;-68
2022/03/04 06:10:51;;;;;;;26.38;16.80;;;;;;;0.51;77.54;101918.13;5262951;28;20544;-69
2022/03/04 06:13:22;;;;;;;24.15;16.95;;;;;;;0.45;76.88;101915.69;5261280;28;20135;-68
2022/03/04 06:15:54;;;;;;;24.80;17.02;;;;;;;0.41;78.05;101920.06;5257937;28;20560;-69
2022/03/04 06:18:25;;;;;;;22.83;16.23;;;;;;;0.36;77.64;101911.63;5265651;28;20028;-68
2022/03/04 06:20:57;;;;;;;25.70;17.13;;;;;;;0.36;78.44;101919.34;5264331;28;20021;-69
2022/03/04 06:23:28;;;;;;;23.52;16.38;;;;;;;0.38;79.03;101927.91;5256900;28;20223;-69
2022/03/04 06:26:00;;;;;;;28.13;17.48;;;;;;;0.41;79.12;101922.66;5262264;28;20424;-69
2022/03/04 06:28:31;;;;;;;24.13;17.35;;;;;;;0.39;79.52;101921.84;5263739;28;20043;-70
2022/03/04 06:31:03;;;;;;;27.08;17.50;;;;;;;0.42;78.68;101934.69;5261316;28;20375;-67
2022/03/04 06:33:35;;;;;;;30.38;17.60;;;;;;;0.37;78.91;101926.19;5260521;28;20107;-69
2022/03/04 06:36:13;;;;;;;24.88;16.80;;;;;;;0.44;78.72;101925.16;5265669;28;20704;-67
2022/03/04 06:38:45;;;;;;;23.88;16.75;;;;;;;0.39;79.06;101931.31;5259287;28;20400;-69
2022/03/04 06:41:19;;;;;;;26.63;16.77;;;;;;;0.40;79.51;101927.84;5268080;28;20025;-69
2022/03/04 06:43:51;;;;;;;25.17;16.50;;;;;;;0.35;78.58;101932.28;5265326;28;20021;-69
2022/03/04 06:46:22;;;;;;;26.48;17.00;;;;;;;0.39;79.98;101933.91;5259623;28;20416;-69
2022/03/04 06:48:53;;;;;;;27.08;17.73;;;;;;;0.36;79.10;101927.09;5262197;28;20021;-68
2022/03/04 06:51:25;;;;;;;25.88;17.33;;;;;;;0.39;78.75;101939.91;5256857;28;20033;-68
2022/03/04 06:53:56;;;;;;;26.77;17.73;;;;;;;0.35;77.97;101945.19;5265185;28;20040;-69
2022/03/04 06:56:27;;;;;;;24.50;16.85;;;;;;;0.41;79.46;101947.59;5257061;28;20041;-67
2022/03/04 06:58:59;;;;;;;26.02;17.67;;;;;;;0.43;80.30;101946.66;5264353;28;20098;-69
2022/03/04 07:01:30;;;;;;;25.70;16.92;;;;;;;0.43;79.21;101946.66;5261219;28;20024;-69
2022/03/04 07:04:01;;;;;;;27.35;17.50;;;;;;;0.42;79.43;101951.88;5263005;28;20022;-69
2022/03/04 07:06:32;;;;;;;23.88;17.13;;;;;;;0.43;79.70;101956.97;5265630;28;20031;-69
2022/03/04 07:09:04;;;;;;;26.17;16.15;;;;;;;0.40;79.69;101951.91;5257354;28;20036;-68
2022/03/04 07:11:35;;;;;;;31.95;17.38;;;;;;;0.45;80.25;101969.81;5260571;28;20107;-70
2022/03/04 07:14:06;;;;;;;30.02;17.45;;;;;;;0.44;80.88;101974.13;5262049;28;20087;-68
2022/03/04 07:16:38;;;;;;;26.60;17.50;;;;;;;0.48;80.16;101980.91;5265704;28;20032;-68
2022/03/04 07:19:09;;;;;;;32.25;18.63;;;;;;;0.56;80.84;101988.47;5264413;28;20028;-69
2022/03/04 07:21:40;;;;;;;30.17;18.20;;;;;;;0.61;82.57;101989.22;5265334;28;20043;-68
2022/03/04 07:24:12;;;;;;;32.22;19.52;;;;;;;0.68;82.15;101985.59;5259248;28;20028;-67
2022/03/04 07:26:43;;;;;;;28.23;18.92;;;;;;;0.72;82.24;101988.94;5263658;28;20031;-68
2022/03/04 07:29:14;;;;;;;30.88;18.88;;;;;;;0.80;80.80;101986.16;5264789;28;20108;-69
2022/03/04 07:31:45;;;;;;;29.30;18.00;;;;;;;0.89;81.03;101981.59;5257593;28;20028;-67
2022/03/04 07:34:17;;;;;;;29.38;18.40;;;;;;;1.01;79.97;101985.59;5254535;28;20052;-69
2022/03/04 07:36:48;;;;;;;38.10;19.33;;;;;;;1.10;80.14;101979.31;5257209;28;20020;-70
2022/03/04 07:39:19;;;;;;;27.73;17.98;;;;;;;1.19;79.39;101989.41;5258933;28;20119;-70
2022/03/04 07:41:51;;;;;;;34.08;18.90;;;;;;;1.30;79.26;101978.81;5264262;28;20028;-70
2022/03/04 07:44:22;;;;;;;36.58;19.38;;;;;;;1.34;78.59;101983.81;5262479;28;20070;-70
2022/03/04 07:46:54;;;;;;;29.88;17.67;;;;;;;1.42;78.57;101975.88;5259160;28;20116;-70
2022/03/04 07:49:25;;;;;;;26.80;17.98;;;;;;;1.54;77.49;101982.41;5261958;28;20028;-70
2022/03/04 07:51:56;;;;;;;27.38;18.40;;;;;;;1.64;76.55;101971.78;5253858;28;20081;-70
2022/03/04 07:54:28;;;;;;;29.42;19.15;;;;;;;1.69;77.38;101979.38;5261596;28;20025;-71
2022/03/04 07:56:59;;;;;;;26.13;17.13;;;;;;;1.72;75.94;101962.94;5263705;28;20029;-70
2022/03/04 07:59:30;;;;;;;27.38;18.17;;;;;;;1.93;75.38;101980.38;5255997;28;20064;-71
2022/03/04 08:02:02;;;;;;;27.02;17.83;;;;;;;2.01;74.93;101985.31;5259977;28;20029;-71
2022/03/04 08:04:33;;;;;;;25.85;17.60;;;;;;;2.14;74.06;101986.63;5267383;28;20476;-70
2022/03/04 08:07:04;;;;;;;27.90;18.20;;;;;;;2.16;74.41;101990.03;5257178;28;20120;-71
2022/03/04 08:09:36;;;;;;;27.27;17.65;;;;;;;2.27;74.18;101987.91;5264428;28;20517;-70
2022/03/04 08:12:08;;;;;;;29.55;18.65;;;;;;;2.32;74.83;101986.06;5260725;28;20029;-70
2022/03/04 08:14:39;;;;;;;29.23;17.65;;;;;;;2.41;73.58;101984.91;5261059;28;20371;-71
2022/03/04 08:17:10;;;;;;;24.45;17.90;;;;;;;2.54;72.64;101985.34;5264695;28;20410;-71
2022/03/04 08:19:42;;;;;;;27.98;18.15;;;;;;;2.66;71.85;101984.97;5258827;28;20503;-70
2022/03/04 08:22:13;;;;;;;26.70;17.25;;;;;;;2.75;71.54;101984.63;5257659;28;20021;-70
2022/03/04 08:24:44;;;;;;;23.00;16.77;;;;;;;2.83;71.22;101976.59;5267655;28;20032;-70
2022/03/04 08:27:15;;;;;;;28.65;18.38;;;;;;;2.90;70.96;101991.88;5261908;28;20075;-70
2022/03/04 08:29:47;;;;;;;24.15;18.08;;;;;;;2.98;69.73;101993.34;5264672;28;20025;-70
2022/03/04 08:32:22;;;;;;;24.73;17.08;;;;;;;3.07;70.06;101993.03;5262421;28;20115;-70
2022/03/04 08:34:53;;;;;;;28.40;18.95;;;;;;;3.17;69.53;101999.56;5257079;28;20032;-70
2022/03/04 08:37:25;;;;;;;24.13;17.05;;;;;;;3.33;68.88;101994.69;5258917;28;20389;-70
2022/03/04 08:39:56;;;;;;;27.70;18.02;;;;;;;3.29;69.64;101995.69;5262372;28;20024;-70
2022/03/04 08:42:28;;;;;;;25.50;17.67;;;;;;;3.44;68.76;101999.50;5263148;28;20055;-70
2022/03/04 08:44:59;;;;;;;28.40;17.65;;;;;;;3.48;68.02;102001.06;5262671;28;20489;-70
2022/03/04 08:47:30;;;;;;;26.63;17.38;;;;;;;3.54;66.80;102008.63;5262708;28;20036;-70
2022/03/04 08:50:02;;;;;;;22.05;16.45;;;;;;;3.65;66.26;102016.84;5262065;28;20105;-70
2022/03/04 08:52:34;;;;;;;25.98;16.92;;;;;;;3.64;66.51;102012.56;5258703;28;20400;-70
2022/03/04 08:55:13;;;;;;;25.73;18.02;;;;;;;3.80;66.88;102012.84;5268077;28;20455;-70
2022/03/04 08:57:48;;;;;;;25.88;18.13;;;;;;;3.86;66.08;102010.88;5264910;28;20040;-70
2022/03/04 09:00:19;;;;;;;24.77;17.45;;;;;;;3.98;65.25;102011.28;5261296;28;20050;-70
2022/03/04 09:02:51;;;;;;;25.13;16.63;;;;;;;4.04;65.19;102017.06;5266366;28;20025;-70
2022/03/04 09:05:22;;;;;;;24.55;16.85;;;;;;;4.12;64.38;102009.84;5266026;28;20098;-70
2022/03/04 09:07:53;;;;;;;27.98;17.77;;;;;;;4.26;64.26;102011.91;5264634;28;20027;-70
2022/03/04 09:10:24;;;;;;;26.60;16.45;;;;;;;4.37;61.36;102008.88;5264709;28;20047;-70
2022/03/04 09:12:56;;;;;;;23.05;16.13;;;;;;;4.49;61.58;102013.56;5264059;28;20052;-70
2022/03/04 09:15:27;;;;;;;27.85;17.75;;;;;;;4.65;62.03;102021.56;5265992;28;20029;-70
2022/03/04 09:17:59;;;;;;;22.83;16.95;;;;;;;4.72;62.39;102016.97;5266404;28;20040;-70
2022/03/04 09:20:30;;;;;;;25.23;17.80;;;;;;;4.95;59.66;102016.00;5266473;28;20488;-70
2022/03/04 09:23:02;;;;;;;24.85;17.05;;;;;;;4.92;60.06;102008.34;5269211;28;20025;-70
2022/03/04 09:25:34;;;;;;;24.80;17.10;;;;;;;5.06;60.63;102013.81;5262313;28;20532;-70
2022/03/04 09:28:06;;;;;;;26.27;17.20;;;;;;;5.19;57.83;102011.50;5271104;28;20646;-71
2022/03/04 09:30:37;;;;;;;23.50;17.57;;;;;;;5.34;58.68;102005.63;5254323;28;20032;-70
2022/03/04 09:33:09;;;;;;;24.67;17.33;;;;;;;5.38;58.17;102004.63;5259429;28;20100;-70
2022/03/04 09:35:40;;;;;;;23.40;16.35;;;;;;;5.53;57.33;101998.72;5263655;28;20081;-70
2022/03/04 09:38:11;;;;;;;20.90;16.10;;;;;;;5.68;57.69;102002.34;5259804;28;20071;-71
2022/03/04 09:40:43;;;;;;;23.20;17.02;;;;;;;5.70;56.90;101997.09;5267420;28;20079;-70
2022/03/04 09:43:18;;;;;;;22.00;16.35;;;;;;;5.86;57.52;102000.69;5264058;28;20048;-71
2022/03/04 09:45:50;;;;;;;23.45;16.90;;;;;;;5.89;56.69;102000.53;5262215;28;20039;-70
2022/03/04 09:48:22;;;;;;;23.65;17.35;;;;;;;6.06;56.69;101997.16;5263763;28;20032;-71
2022/03/04 09:50:54;;;;;;;21.77;15.93;;;;;;;6.08;55.67;101993.59;5260131;28;20040;-71
2022/03/04 09:53:27;;;;;;;19.15;15.38;;;;;;;6.24;54.82;101996.28;5265597;28;20036;-71
2022/03/04 09:55:58;;;;;;;23.67;17.10;;;;;;;6.36;54.06;102000.06;5263449;28;20025;-71
2022/03/04 09:58:29;;;;;;;24.48;17.73;;;;;;;6.42;54.73;102002.38;5262698;28;20052;-71
2022/03/04 10:01:00;;;;;;;27.77;17.73;;;;;;;6.61;53.95;101993.66;5268917;28;20034;-71
2022/03/04 10:03:31;;;;;;;21.88;16.80;;;;;;;6.81;53.36;101998.72;5267679;28;20021;-71
2022/03/04 10:06:04;;;;;;;24.77;17.30;;;;;;;6.95;52.97;101988.44;5262565;28;20033;-71
2022/03/04 10:08:41;;;;;;;25.13;17.38;;;;;;;7.02;52.86;101988.97;5256889;28;20026;-71
2022/03/04 10:11:24;;;;;;;27.75;17.90;;;;;;;7.14;53.12;101995.31;5261998;28;20029;-71
2022/03/04 10:13:59;;;;;;;23.80;17.40;;;;;;;7.12;52.32;101991.91;5260005;28;20028;-71
2022/03/04 10:16:33;;;;;;;22.30;17.27;;;;;;;7.24;52.95;101999.13;5262046;28;20037;-71
2022/03/04 10:19:09;;;;;;;24.98;17.45;;;;;;;7.24;50.92;101999.13;5258749;28;20037;-71
2022/03/04 10:21:59;;;;;;;25.42;17.58;;;;;;;7.55;51.85;102004.41;5262981;28;20458;-71
2022/03/04 10:24:35;;;;;;;23.00;18.00;;;;;;;7.63;51.57;102005.75;5259006;28;20032;-71
2022/03/04 10:27:15;;;;;;;25.80;17.83;;;;;;;7.72;49.76;102010.47;5261970;28;20394;-71
2022/03/04 10:29:49;;;;;;;26.95;17.58;;;;;;;7.84;49.97;102002.00;5263959;28;20071;-71
2022/03/04 10:32:24;;;;;;;26.00;17.38;;;;;;;7.92;50.96;102007.63;5260871;28;20047;-72
2022/03/04 10:35:04;;;;;;;22.58;16.80;;;;;;;8.17;50.17;102006.25;5263862;28;20032;-71
2022/03/04 10:37:42;;;;;;;23.33;16.27;;;;;;;8.18;49.92;102007.91;5259896;28;20032;-71
2022/03/04 10:40:19;;;;;;;23.35;17.33;;;;;;;8.29;48.34;101995.94;5260129;28;20698;-72
2022/03/04 10:42:53;;;;;;;23.30;16.23;;;;;;;8.36;48.08;101998.22;5259865;28;20043;-71
2022/03/04 10:45:43;;;;;;;22.48;16.80;;;;;;;8.55;47.81;102000.66;5263839;28;20512;-72
2022/03/04 10:48:17;;;;;;;25.70;16.83;;;;;;;8.58;48.45;101997.88;5263061;28;20090;-71
2022/03/04 10:50:54;;;;;;;22.80;16.92;;;;;;;8.81;48.26;101996.53;5263789;28;20062;-72
2022/03/04 10:53:28;;;;;;;22.33;16.35;;;;;;;8.89;47.26;101989.91;5261837;28;20067;-72
2022/03/04 10:56:05;;;;;;;24.27;17.17;;;;;;;8.77;47.31;101977.56;5260909;28;20111;-72
2022/03/04 10:58:38;;;;;;;23.02;16.23;;;;;;;8.94;47.69;101989.63;5260126;28;20029;-71
2022/03/04 11:01:16;;;;;;;22.35;16.02;;;;;;;9.11;46.40;101993.84;5261375;28;20033;-71
2022/03/04 11:03:49;;;;;;;20.08;15.73;;;;;;;9.22;44.34;101987.03;5260942;28;20021;-71
2022/03/04 11:06:21;;;;;;;23.00;16.02;;;;;;;9.35;45.86;101981.06;5253213;28;20308;-71
2022/03/04 11:08:54;;;;;;;19.65;14.73;;;;;;;9.56;44.14;101984.13;5256445;28;20521;-71
2022/03/04 11:11:26;;;;;;;22.05;15.30;;;;;;;9.75;43.06;101992.50;5259416;28;20037;-71
2022/03/04 11:13:58;;;;;;;21.73;15.48;;;;;;;9.87;42.59;101978.63;5262081;28;20055;-72
2022/03/04 11:16:30;;;;;;;20.20;15.45;;;;;;;9.98;42.66;101981.41;5263241;28;20087;-72
2022/03/04 11:19:02;;;;;;;21.67;15.25;;;;;;;9.87;42.75;101975.19;5257475;28;20104;-72
2022/03/04 11:21:34;;;;;;;20.65;15.50;;;;;;;10.01;42.58;101969.91;5256462;28;20444;-71
2022/03/04 11:24:06;;;;;;;20.60;15.18;;;;;;;10.07;42.67;101968.66;5260110;28;20027;-71
2022/03/04 11:26:42;;;;;;;23.42;15.18;;;;;;;10.34;41.60;101966.91;5254989;28;20028;-72
2022/03/04 11:29:34;;;;;;;20.42;15.98;;;;;;;10.48;41.11;101964.19;5260044;28;20033;-72
2022/03/04 11:32:06;;;;;;;22.15;15.02;;;;;;;10.39;39.53;101963.97;5262130;28;20090;-72
2022/03/04 11:34:45;;;;;;;18.90;14.33;;;;;;;10.52;39.92;101953.53;5258442;28;20068;-72
2022/03/04 11:37:19;;;;;;;20.13;14.40;;;;;;;10.65;38.81;101957.00;5257721;28;20024;-72
2022/03/04 11:40:01;;;;;;;18.10;14.40;;;;;;;10.83;39.48;101953.13;5260686;28;20025;-72